createdAt,value
2019-05-13T00:00:59.987Z,7.97
2019-05-13T00:03:33.388Z,6.87
2019-05-13T00:06:04.952Z,5.87
2019-05-13T00:08:36.214Z,7.25
2019-05-13T00:11:08.177Z,9.08
2019-05-13T00:13:39.693Z,7.80
2019-05-13T00:16:10.970Z,7.40
2019-05-13T00:18:44.241Z,7.10
2019-05-13T00:21:15.368Z,8.53
2019-05-13T00:23:46.390Z,5.40
2019-05-13T00:26:17.982Z,6.22
2019-05-13T00:28:49.860Z,9.68
2019-05-13T00:31:23.655Z,9.40
2019-05-13T00:33:55.122Z,8.30
2019-05-13T00:36:26.714Z,7.65
2019-05-13T00:38:58.582Z,6.50
2019-05-13T00:41:29.833Z,3.90
2019-05-13T00:44:00.864Z,9.90
2019-05-13T00:46:33.998Z,10.00
2019-05-13T00:49:06.170Z,8.58
2019-05-13T00:51:37.794Z,6.08
2019-05-13T00:54:09.305Z,6.28
2019-05-13T00:56:43.450Z,8.75
2019-05-13T00:59:14.347Z,7.30
2019-05-13T01:01:45.756Z,7.37
2019-05-13T01:04:17.275Z,5.03
2019-05-13T01:06:48.555Z,7.97
2019-05-13T01:09:20.415Z,10.65
2019-05-13T01:11:53.717Z,7.80
2019-05-13T01:14:26.130Z,9.70
2019-05-13T01:16:57.418Z,7.55
2019-05-13T01:19:29.288Z,12.63
2019-05-13T01:22:03.248Z,9.38
2019-05-13T01:24:34.203Z,10.80
2019-05-13T01:27:05.779Z,9.15
2019-05-13T01:29:37.125Z,8.53
2019-05-13T01:32:08.914Z,6.67
2019-05-13T01:34:40.526Z,7.30
2019-05-13T01:37:13.265Z,7.47
2019-05-13T01:39:45.103Z,8.15
2019-05-13T01:42:16.843Z,8.40
2019-05-13T01:44:49.010Z,8.20
2019-05-13T01:47:20.685Z,10.05
2019-05-13T01:49:54.240Z,12.07
2019-05-13T01:52:25.675Z,9.80
2019-05-13T01:54:57.910Z,10.30
2019-05-13T01:57:29.738Z,9.03
2019-05-13T02:00:01.179Z,9.40
2019-05-13T02:02:33.686Z,10.10
2019-05-13T02:05:05.368Z,5.75
2019-05-13T02:07:36.959Z,13.25
2019-05-13T02:10:10.679Z,6.47
2019-05-13T02:12:44.548Z,7.28
2019-05-13T02:15:15.953Z,10.68
2019-05-13T02:17:48.841Z,10.95
2019-05-13T02:20:20.262Z,8.48
2019-05-13T02:22:53.639Z,14.85
2019-05-13T02:25:25.092Z,7.85
2019-05-13T02:27:57.239Z,11.05
2019-05-13T02:30:29.243Z,9.88
2019-05-13T02:33:02.768Z,11.65
2019-05-13T02:35:34.313Z,7.70
2019-05-13T02:38:19.471Z,12.15
2019-05-13T02:40:42.885Z,8.13
2019-05-13T02:43:13.777Z,11.12
2019-05-13T02:45:46.593Z,10.25
2019-05-13T02:48:18.224Z,9.05
2019-05-13T02:50:52.573Z,8.13
2019-05-13T02:53:23.758Z,11.35
2019-05-13T02:55:55.996Z,12.07
2019-05-13T02:58:29.015Z,11.43
2019-05-13T03:01:03.093Z,11.57
2019-05-13T03:03:33.280Z,9.30
2019-05-13T03:06:04.443Z,10.55
2019-05-13T03:08:48.327Z,8.78
2019-05-13T03:11:12.469Z,11.30
2019-05-13T03:13:42.851Z,12.28
2019-05-13T03:16:23.082Z,11.60
2019-05-13T03:18:54.031Z,11.50
2019-05-13T03:21:25.684Z,9.13
2019-05-13T03:23:56.967Z,10.75
2019-05-13T03:26:32.012Z,12.73
2019-05-13T03:29:02.991Z,15.23
2019-05-13T03:31:36.273Z,10.35
2019-05-13T03:34:08.377Z,14.45
2019-05-13T03:36:45.660Z,12.35
2019-05-13T03:39:16.206Z,12.93
2019-05-13T03:41:52.825Z,14.68
2019-05-13T03:44:28.679Z,10.32
2019-05-13T03:47:03.660Z,11.43
2019-05-13T03:49:37.885Z,9.60
2019-05-13T03:52:09.267Z,12.78
2019-05-13T03:54:43.594Z,13.18
2019-05-13T03:57:15.063Z,11.53
2019-05-13T03:59:48.573Z,18.23
2019-05-13T04:02:22.630Z,11.03
2019-05-13T04:04:53.627Z,9.18
2019-05-13T04:07:25.586Z,11.00
2019-05-13T04:09:57.651Z,8.80
2019-05-13T04:12:33.120Z,9.28
2019-05-13T04:15:03.961Z,9.88
2019-05-13T04:17:35.477Z,13.10
2019-05-13T04:20:08.012Z,12.93
2019-05-13T04:22:42.446Z,9.93
2019-05-13T04:25:13.490Z,10.82
2019-05-13T04:27:45.270Z,12.78
2019-05-13T04:30:16.690Z,10.17
2019-05-13T04:32:48.372Z,10.08
2019-05-13T04:35:22.239Z,9.70
2019-05-13T04:37:53.257Z,12.47
2019-05-13T04:40:25.404Z,12.58
2019-05-13T04:42:57.521Z,7.80
2019-05-13T04:45:32.594Z,9.57
2019-05-13T04:48:03.507Z,13.60
2019-05-13T04:50:35.680Z,10.07
2019-05-13T04:53:07.545Z,11.73
2019-05-13T04:55:42.787Z,13.90
2019-05-13T04:58:13.720Z,13.03
2019-05-13T05:01:40.317Z,10.37
2019-05-13T05:04:31.043Z,10.33
2019-05-13T05:07:37.786Z,10.07
2019-05-13T05:10:50.202Z,7.63
2019-05-13T05:14:02.708Z,10.23
2019-05-13T05:17:03.395Z,6.93
2019-05-13T05:20:06.470Z,9.03
2019-05-13T05:23:21.274Z,10.57
2019-05-13T05:26:25.122Z,9.70
2019-05-13T05:29:24.059Z,9.73
2019-05-13T05:32:52.718Z,14.10
2019-05-13T05:35:52.119Z,10.53
2019-05-13T05:39:24.349Z,11.07
2019-05-13T05:41:58.501Z,8.67
2019-05-13T05:44:32.985Z,13.20
2019-05-13T05:47:05.089Z,9.60
2019-05-13T05:49:41.092Z,9.10
2019-05-13T05:52:12.947Z,9.53
2019-05-13T05:54:45.827Z,10.60
2019-05-13T05:57:22.335Z,10.77
2019-05-13T05:59:54.593Z,8.33
2019-05-13T06:02:32.164Z,9.67
2019-05-13T06:05:04.713Z,12.17
2019-05-13T06:07:38.517Z,10.50
2019-05-13T06:10:11.459Z,10.90
2019-05-13T06:12:44.119Z,14.40
2019-05-13T06:15:17.110Z,11.33
2019-05-13T06:17:51.642Z,8.73
2019-05-13T06:20:22.796Z,12.57
2019-05-13T06:22:55.226Z,10.97
2019-05-13T06:25:26.722Z,7.90
2019-05-13T06:27:58.231Z,10.73
2019-05-13T06:30:32.586Z,9.97
2019-05-13T06:33:03.791Z,11.87
2019-05-13T06:35:35.427Z,7.60
2019-05-13T06:38:06.593Z,8.00
2019-05-13T06:40:37.981Z,8.63
2019-05-13T06:43:12.030Z,10.93
2019-05-13T06:45:43.411Z,9.83
2019-05-13T06:48:15.112Z,10.83
2019-05-13T06:50:46.529Z,7.57
2019-05-13T06:53:18.895Z,10.57
2019-05-13T06:55:52.308Z,11.50
2019-05-13T06:58:23.463Z,8.40
2019-05-13T07:00:57.782Z,8.70
2019-05-13T07:03:28.881Z,8.47
2019-05-13T07:06:01.828Z,6.33
2019-05-13T07:08:33.476Z,7.20
2019-05-13T07:11:17.719Z,8.63
2019-05-13T07:13:39.092Z,7.67
2019-05-13T07:16:11.890Z,8.30
2019-05-13T07:18:43.839Z,8.10
2019-05-13T07:21:15.584Z,10.60
2019-05-13T07:23:52.163Z,7.67
2019-05-13T07:26:22.264Z,9.70
2019-05-13T07:28:53.713Z,11.17
2019-05-13T07:31:25.650Z,9.13
2019-05-13T07:33:58.452Z,7.10
2019-05-13T07:36:31.609Z,8.90
2019-05-13T07:39:06.485Z,7.60
2019-05-13T07:41:39.726Z,9.77
2019-05-13T07:44:12.213Z,8.07
2019-05-13T07:46:43.832Z,6.97
2019-05-13T07:49:15.989Z,7.40
2019-05-13T07:51:47.498Z,7.37
2019-05-13T07:54:21.859Z,8.17
2019-05-13T07:56:52.603Z,6.07
2019-05-13T07:59:23.878Z,10.33
2019-05-13T08:01:55.872Z,7.83
2019-05-13T08:04:27.773Z,5.70
2019-05-13T08:07:01.630Z,6.70
2019-05-13T08:09:32.328Z,6.23
2019-05-13T08:12:10.116Z,5.30
2019-05-13T08:14:37.112Z,6.10
2019-05-13T08:17:11.468Z,5.93
2019-05-13T08:19:42.697Z,7.97
2019-05-13T08:22:14.785Z,4.50
2019-05-13T08:24:46.659Z,6.80
2019-05-13T08:27:24.084Z,5.57
2019-05-13T08:29:52.212Z,7.47
2019-05-13T08:32:23.992Z,8.27
2019-05-13T08:35:01.247Z,6.33
2019-05-13T08:37:31.957Z,5.80
2019-05-13T08:40:03.139Z,5.60
2019-05-13T08:42:35.057Z,7.83
2019-05-13T08:45:08.275Z,6.90
2019-05-13T08:47:41.980Z,6.37
2019-05-13T08:50:14.018Z,6.43
2019-05-13T08:52:45.346Z,7.13
2019-05-13T08:55:18.034Z,6.83
2019-05-13T08:57:53.155Z,7.13
2019-05-13T09:00:52.926Z,5.80
2019-05-13T09:03:24.888Z,7.30
2019-05-13T09:05:56.871Z,7.13
2019-05-13T09:08:28.899Z,4.50
2019-05-13T09:11:01.552Z,5.47
2019-05-13T09:13:33.479Z,5.77
2019-05-13T09:16:05.540Z,5.63
2019-05-13T09:18:37.212Z,3.87
2019-05-13T09:21:08.914Z,5.70
2019-05-13T09:23:41.369Z,5.83
2019-05-13T09:26:12.811Z,7.10
2019-05-13T09:28:44.121Z,5.00
2019-05-13T09:31:16.147Z,4.67
2019-05-13T09:33:48.062Z,4.13
2019-05-13T09:36:21.748Z,6.83
2019-05-13T09:38:53.344Z,2.53
2019-05-13T09:41:25.053Z,4.10
2019-05-13T09:43:56.946Z,5.27
2019-05-13T09:46:28.776Z,4.87
2019-05-13T09:49:12.953Z,3.03
2019-05-13T09:51:33.575Z,4.37
2019-05-13T09:54:05.334Z,6.10
2019-05-13T09:56:36.770Z,4.90
2019-05-13T09:59:07.770Z,4.57
2019-05-13T10:01:42.408Z,5.73
2019-05-13T10:04:13.839Z,3.77
2019-05-13T10:06:46.438Z,4.13
2019-05-13T10:09:18.167Z,3.90
2019-05-13T10:11:51.957Z,3.73
2019-05-13T10:14:24.643Z,6.23
2019-05-13T10:16:56.653Z,4.33
2019-05-13T10:19:27.992Z,3.60
2019-05-13T10:21:59.234Z,7.00
2019-05-13T10:24:32.780Z,5.53
2019-05-13T10:27:04.831Z,4.73
2019-05-13T10:29:37.099Z,5.17
2019-05-13T10:32:08.501Z,4.10
2019-05-13T10:34:42.644Z,5.07
2019-05-13T10:37:14.780Z,7.07
2019-05-13T10:39:46.570Z,6.37
2019-05-13T10:42:18.190Z,2.63
2019-05-13T10:44:52.326Z,5.73
2019-05-13T10:47:23.774Z,5.40
2019-05-13T10:49:54.789Z,2.60
2019-05-13T10:52:26.140Z,4.43
2019-05-13T10:54:57.407Z,2.27
2019-05-13T10:57:31.837Z,1.90
2019-05-13T11:00:03.507Z,2.10
2019-05-13T11:02:36.979Z,1.67
2019-05-13T11:05:12.309Z,2.57
2019-05-13T11:07:44.181Z,4.17
2019-05-13T11:10:21.865Z,4.60
2019-05-13T11:12:52.650Z,2.20
2019-05-13T11:15:24.278Z,5.17
2019-05-13T11:17:55.350Z,1.63
2019-05-13T11:20:27.210Z,4.77
2019-05-13T11:22:59.411Z,1.93
2019-05-13T11:25:32.336Z,2.83
2019-05-13T11:28:04.564Z,4.47
2019-05-13T11:30:36.029Z,3.70
2019-05-13T11:33:10.185Z,2.50
2019-05-13T11:35:41.456Z,5.03
2019-05-13T11:38:13.691Z,3.50
2019-05-13T11:40:45.596Z,5.53
2019-05-13T11:43:17.671Z,2.73
2019-05-13T11:45:50.731Z,1.87
2019-05-13T11:48:23.555Z,3.90
2019-05-13T11:50:56.040Z,3.93
2019-05-13T11:53:32.888Z,3.40
2019-05-13T11:56:03.674Z,2.50
2019-05-13T11:58:33.983Z,4.60
2019-05-13T12:01:05.961Z,5.13
2019-05-13T12:03:38.109Z,5.27
2019-05-13T12:06:10.432Z,3.53
2019-05-13T12:08:50.185Z,3.63
2019-05-13T12:11:15.669Z,4.83
2019-05-13T12:13:47.849Z,4.50
2019-05-13T12:16:22.504Z,4.73
2019-05-13T12:18:53.079Z,2.43
2019-05-13T12:21:24.212Z,2.40
2019-05-13T12:23:57.531Z,2.40
2019-05-13T12:26:28.678Z,3.20
2019-05-13T12:29:02.731Z,5.17
2019-05-13T12:31:33.805Z,2.77
2019-05-13T12:34:05.367Z,3.20
2019-05-13T12:36:38.616Z,3.37
2019-05-13T12:39:13.810Z,3.83
2019-05-13T12:41:43.145Z,1.93
2019-05-13T12:44:15.026Z,2.43
2019-05-13T12:46:50.560Z,3.07
2019-05-13T12:49:22.062Z,2.77
2019-05-13T12:52:00.387Z,3.83
2019-05-13T12:54:25.862Z,3.50
2019-05-13T12:56:57.669Z,3.30
2019-05-13T12:59:31.968Z,4.90
2019-05-13T13:02:03.274Z,3.33
2019-05-13T13:04:35.283Z,1.63
2019-05-13T13:07:06.626Z,2.60
2019-05-13T13:09:38.336Z,2.83
2019-05-13T13:12:10.805Z,4.10
2019-05-13T13:14:44.288Z,2.60
2019-05-13T13:17:16.010Z,2.73
2019-05-13T13:19:47.973Z,2.63
2019-05-13T13:22:20.547Z,6.13
2019-05-13T13:24:57.389Z,3.40
2019-05-13T13:27:59.013Z,2.73
2019-05-13T13:30:04.446Z,2.93
2019-05-13T13:32:33.398Z,4.47
2019-05-13T13:35:05.888Z,2.30
2019-05-13T13:37:37.613Z,9.33
2019-05-13T13:40:11.049Z,4.50
2019-05-13T13:42:43.519Z,4.37
2019-05-13T13:45:15.633Z,2.53
2019-05-13T13:47:59.286Z,1.83
2019-05-13T13:50:24.631Z,1.73
2019-05-13T13:52:54.753Z,2.00
2019-05-13T13:55:26.442Z,4.20
2019-05-13T13:57:57.795Z,4.97
2019-05-13T14:00:40.926Z,2.30
2019-05-13T14:03:06.382Z,2.43
2019-05-13T14:05:36.480Z,3.20
2019-05-13T14:08:08.356Z,3.70
2019-05-13T14:10:42.011Z,2.97
2019-05-13T14:13:13.620Z,3.97
2019-05-13T14:15:45.628Z,2.67
2019-05-13T14:18:17.242Z,4.10
2019-05-13T14:20:48.368Z,4.73
2019-05-13T14:23:21.302Z,3.63
2019-05-13T14:25:53.399Z,3.57
2019-05-13T14:28:25.270Z,2.27
2019-05-13T14:30:57.898Z,2.37
2019-05-13T14:33:32.547Z,2.53
2019-05-13T14:36:02.328Z,2.63
2019-05-13T14:38:34.166Z,2.67
2019-05-13T14:41:09.091Z,2.60
2019-05-13T14:43:39.348Z,3.77
2019-05-13T14:46:12.624Z,4.17
2019-05-13T14:48:44.457Z,2.37
2019-05-13T14:51:16.556Z,3.73
2019-05-13T14:53:47.565Z,2.73
2019-05-13T14:56:19.195Z,1.70
2019-05-13T14:58:52.068Z,2.23
2019-05-13T15:01:24.635Z,2.70
2019-05-13T15:03:56.819Z,2.80
2019-05-13T15:06:28.418Z,3.07
2019-05-13T15:09:01.726Z,2.93
2019-05-13T15:11:34.658Z,2.27
2019-05-13T15:14:06.684Z,3.43
2019-05-13T15:16:38.335Z,3.23
2019-05-13T15:19:11.828Z,3.03
2019-05-13T15:21:43.072Z,3.87
2019-05-13T15:24:15.129Z,3.33
2019-05-13T15:26:46.782Z,2.50
2019-05-13T15:29:22.078Z,2.17
2019-05-13T15:31:52.892Z,2.43
2019-05-13T15:34:25.540Z,1.90
2019-05-13T15:36:57.416Z,2.50
2019-05-13T15:39:28.473Z,2.33
2019-05-13T15:42:02.006Z,3.23
2019-05-13T15:44:33.924Z,1.60
2019-05-13T15:47:20.267Z,2.83
2019-05-13T15:49:39.270Z,2.10
2019-05-13T15:52:11.771Z,3.90
2019-05-13T15:54:45.180Z,3.57
2019-05-13T15:57:17.093Z,3.30
2019-05-13T15:59:51.610Z,2.57
2019-05-13T16:02:22.746Z,2.23
2019-05-13T16:05:01.204Z,1.83
2019-05-13T16:07:27.995Z,3.17
2019-05-13T16:10:02.048Z,3.30
2019-05-13T16:12:33.540Z,3.33
2019-05-13T16:15:05.912Z,2.80
2019-05-13T16:17:42.213Z,2.60
2019-05-13T16:20:12.552Z,3.90
2019-05-13T16:22:45.332Z,5.03
2019-05-13T16:25:17.424Z,2.87
2019-05-13T16:27:51.877Z,1.50
2019-05-13T16:30:23.820Z,2.03
2019-05-13T16:32:55.939Z,4.87
2019-05-13T16:35:28.119Z,3.47
2019-05-13T16:38:01.890Z,2.27
2019-05-13T16:40:36.582Z,1.37
2019-05-13T16:43:07.537Z,2.67
2019-05-13T16:45:41.587Z,2.97
2019-05-13T16:48:12.774Z,1.40
2019-05-13T16:50:44.118Z,3.23
2019-05-13T16:53:16.367Z,2.30
2019-05-13T16:55:48.100Z,1.60
2019-05-13T16:58:24.472Z,2.87
2019-05-13T17:00:55.803Z,3.33
2019-05-13T17:03:27.126Z,2.13
2019-05-13T17:05:58.917Z,1.77
2019-05-13T17:08:31.791Z,1.70
2019-05-13T17:11:03.454Z,5.10
2019-05-13T17:13:34.495Z,5.40
2019-05-13T17:16:06.346Z,2.53
2019-05-13T17:18:38.126Z,3.27
2019-05-13T17:21:10.159Z,1.90
2019-05-13T17:23:42.069Z,2.30
2019-05-13T17:26:13.350Z,2.10
2019-05-13T17:28:45.289Z,2.13
2019-05-13T17:31:17.088Z,2.03
2019-05-13T17:33:48.739Z,1.53
2019-05-13T17:36:21.712Z,3.63
2019-05-13T17:38:54.051Z,3.73
2019-05-13T17:41:25.732Z,2.87
2019-05-13T17:43:57.438Z,2.07
2019-05-13T17:46:29.344Z,3.00
2019-05-13T17:49:01.016Z,1.47
2019-05-13T17:51:32.763Z,2.10
2019-05-13T17:54:04.554Z,2.60
2019-05-13T17:56:35.981Z,2.70
2019-05-13T17:59:07.561Z,3.03
2019-05-13T18:01:41.301Z,2.40
2019-05-13T18:04:12.473Z,2.50
2019-05-13T18:06:44.619Z,2.70
2019-05-13T18:09:15.671Z,2.97
2019-05-13T18:11:47.731Z,3.30
2019-05-13T18:14:21.744Z,4.97
2019-05-13T18:16:53.233Z,3.93
2019-05-13T18:19:25.853Z,3.67
2019-05-13T18:21:57.543Z,2.47
2019-05-13T18:24:29.141Z,1.50
2019-05-13T18:27:01.473Z,4.77
2019-05-13T18:29:33.149Z,2.93
2019-05-13T18:32:04.582Z,3.47
2019-05-13T18:34:36.402Z,2.20
2019-05-13T18:37:08.273Z,2.47
2019-05-13T18:39:41.611Z,4.27
2019-05-13T18:42:13.774Z,4.00
2019-05-13T18:44:45.569Z,2.67
2019-05-13T18:47:16.674Z,4.53
2019-05-13T18:49:48.310Z,2.03
2019-05-13T18:52:22.167Z,4.37
2019-05-13T18:54:54.075Z,4.47
2019-05-13T18:57:25.861Z,3.10
2019-05-13T18:59:57.840Z,3.00
2019-05-13T19:02:31.876Z,3.47
2019-05-13T19:05:02.574Z,2.77
2019-05-13T19:07:34.527Z,2.77
2019-05-13T19:10:06.815Z,2.67
2019-05-13T19:12:38.967Z,2.47
2019-05-13T19:15:11.361Z,3.27
2019-05-13T19:17:43.284Z,3.30
2019-05-13T19:20:14.692Z,4.53
2019-05-13T19:22:46.614Z,5.07
2019-05-13T19:25:18.667Z,6.23
2019-05-13T19:27:51.744Z,4.50
2019-05-13T19:30:22.896Z,5.20
2019-05-13T19:32:54.757Z,4.30
2019-05-13T19:35:26.123Z,4.67
2019-05-13T19:37:58.550Z,3.00
2019-05-13T19:40:31.258Z,6.60
2019-05-13T19:43:03.178Z,6.30
2019-05-13T19:45:36.696Z,5.50
2019-05-13T19:48:08.442Z,3.03
2019-05-13T19:50:41.584Z,2.87
2019-05-13T19:53:13.072Z,5.80
2019-05-13T19:55:44.944Z,4.77
2019-05-13T19:58:16.490Z,4.47
2019-05-13T20:00:47.895Z,6.10
2019-05-13T20:03:19.209Z,5.17
2019-05-13T20:05:51.420Z,3.17
2019-05-13T20:08:23.158Z,3.60
2019-05-13T20:10:54.904Z,3.37
2019-05-13T20:13:26.773Z,5.73
2019-05-13T20:15:58.620Z,2.97
2019-05-13T20:18:32.086Z,2.27
2019-05-13T20:21:04.057Z,1.90
2019-05-13T20:23:35.341Z,2.13
2019-05-13T20:26:07.393Z,4.20
2019-05-13T20:28:41.842Z,3.77
2019-05-13T20:31:12.637Z,3.10
2019-05-13T20:33:43.979Z,4.13
2019-05-13T20:36:14.989Z,2.47
2019-05-13T20:38:47.058Z,2.80
2019-05-13T20:41:19.221Z,2.50
2019-05-13T20:43:52.089Z,5.97
2019-05-13T20:46:23.596Z,3.30
2019-05-13T20:48:56.427Z,3.47
2019-05-13T20:51:28.655Z,2.30
2019-05-13T20:54:02.211Z,3.40
2019-05-13T20:56:33.726Z,5.87
2019-05-13T20:59:05.829Z,4.30
2019-05-13T21:01:37.211Z,3.07
2019-05-13T21:04:09.199Z,2.37
2019-05-13T21:06:42.269Z,3.53
2019-05-13T21:09:16.782Z,3.10
2019-05-13T21:11:47.629Z,2.40
2019-05-13T21:14:21.385Z,2.97
2019-05-13T21:16:53.543Z,3.30
2019-05-13T21:19:25.671Z,3.53
2019-05-13T21:21:57.930Z,4.30
2019-05-13T21:24:31.959Z,4.27
2019-05-13T21:27:03.057Z,2.67
2019-05-13T21:29:34.320Z,2.13
2019-05-13T21:32:05.766Z,5.47
2019-05-13T21:34:37.639Z,3.70
2019-05-13T21:37:11.392Z,3.97
2019-05-13T21:39:43.101Z,5.30
2019-05-13T21:42:14.729Z,2.57
2019-05-13T21:44:46.311Z,3.10
2019-05-13T21:47:17.966Z,2.70
2019-05-13T21:49:51.560Z,3.57
2019-05-13T21:52:23.951Z,2.27
2019-05-13T21:54:55.034Z,3.00
2019-05-13T21:57:26.823Z,2.93
2019-05-13T21:59:58.481Z,4.33
2019-05-13T22:02:31.717Z,1.97
2019-05-13T22:05:03.317Z,2.27
2019-05-13T22:07:35.701Z,2.20
2019-05-13T22:10:07.372Z,2.80
2019-05-13T22:12:38.740Z,2.67
2019-05-13T22:15:10.492Z,5.17
2019-05-13T22:17:42.231Z,2.93
2019-05-13T22:20:14.515Z,2.77
2019-05-13T22:22:46.159Z,5.57
2019-05-13T22:25:17.993Z,3.47
2019-05-13T22:27:49.320Z,2.47
2019-05-13T22:30:23.167Z,6.17
2019-05-13T22:32:54.512Z,3.63
2019-05-13T22:35:25.881Z,3.73
2019-05-13T22:37:57.829Z,3.77
2019-05-13T22:40:32.257Z,3.33
2019-05-13T22:43:04.091Z,3.33
2019-05-13T22:45:37.184Z,3.23
2019-05-13T22:48:08.799Z,5.57
2019-05-13T22:50:41.550Z,2.73
2019-05-13T22:53:13.265Z,4.80
2019-05-13T22:55:45.377Z,3.10
2019-05-13T22:58:17.407Z,3.30
2019-05-13T23:00:51.563Z,5.97
2019-05-13T23:03:22.658Z,3.23
2019-05-13T23:05:53.954Z,4.30
2019-05-13T23:08:25.863Z,2.83
2019-05-13T23:10:57.272Z,4.23
2019-05-13T23:13:31.164Z,3.67
2019-05-13T23:16:02.834Z,5.97
2019-05-13T23:18:34.208Z,2.33
2019-05-13T23:21:05.219Z,3.93
2019-05-13T23:23:36.811Z,5.63
2019-05-13T23:26:08.981Z,6.07
2019-05-13T23:28:41.556Z,4.83
2019-05-13T23:31:13.720Z,5.43
2019-05-13T23:33:45.836Z,5.93
2019-05-13T23:36:17.541Z,3.67
2019-05-13T23:38:48.801Z,5.17
2019-05-13T23:41:21.769Z,2.97
2019-05-13T23:43:53.735Z,5.90
2019-05-13T23:46:25.732Z,4.63
2019-05-13T23:48:57.352Z,3.40
2019-05-13T23:51:28.973Z,5.97
2019-05-13T23:54:01.615Z,5.13
2019-05-13T23:56:32.991Z,3.97
2019-05-13T23:59:04.627Z,6.23
